Rollag, Minnesota
Current Conditions -  °F | °C
As of 11:11 AM on Sunday 23 Nov 2014 (Local Time) from KJKJ Reporting Station
Overcast Overcast  
Wind Chill: 37°   Ceiling: 4600
Heat Index: 43°   Visibility: 10mi
Dew Point: 41°   Wind: 9mph
Humidity: 93%   Direction: 260°W
Pressure: 29.45"   Gusts: NA
Location:  46.8912°N, 96.2982°W
Report Text: KJKJ 231711Z AUTO 26008KT 10SM OVC046 06/05 A2945 RMK AO2
Loading
Personal Weather Stations






























Interactive Weather Map New forecast layout! Learn more

10-Day Weather Forecast

Advertisements
Track Severe Weather on mobile